createdAt,value
2022-10-13T00:01:20.666Z,64.54
2022-10-13T00:03:48.508Z,64.76
2022-10-13T00:06:22.541Z,64.41
2022-10-13T00:08:49.652Z,64.53
2022-10-13T00:11:22.663Z,64.33
2022-10-13T00:13:50.940Z,64.23
2022-10-13T00:16:18.885Z,64.44
2022-10-13T00:18:45.942Z,64.16
2022-10-13T00:21:16.239Z,64.32
2022-10-13T00:23:45.918Z,64.22
2022-10-13T00:26:17.337Z,64.12
2022-10-13T00:28:53.017Z,64.42
2022-10-13T00:31:31.559Z,64.12
2022-10-13T00:34:00.317Z,64.52
2022-10-13T00:36:27.898Z,64.29
2022-10-13T00:38:55.037Z,63.93
2022-10-13T00:41:22.463Z,64.27
2022-10-13T00:43:54.978Z,64.47
2022-10-13T00:46:22.759Z,64.51
2022-10-13T00:49:02.557Z,64.49
2022-10-13T00:51:33.645Z,65.05
2022-10-13T00:54:03.637Z,64.96
2022-10-13T00:56:31.097Z,65.37
2022-10-13T00:59:00.327Z,65.47
2022-10-13T01:01:27.417Z,65.06
2022-10-13T01:03:54.465Z,65.05
2022-10-13T01:06:23.852Z,65.06
2022-10-13T01:08:51.521Z,64.91
2022-10-13T01:11:43.599Z,64.79
2022-10-13T01:14:15.698Z,64.90
2022-10-13T01:17:01.577Z,64.91
2022-10-13T01:20:05.977Z,64.91
2022-10-13T01:22:38.859Z,64.70
2022-10-13T01:25:27.318Z,65.07
2022-10-13T01:28:21.219Z,65.22
2022-10-13T01:31:06.297Z,65.46
2022-10-13T01:33:44.257Z,65.30
2022-10-13T01:36:39.098Z,65.42
2022-10-13T01:39:47.980Z,65.32
2022-10-13T01:42:20.583Z,64.89
2022-10-13T01:44:53.837Z,65.16
2022-10-13T01:47:23.158Z,64.90
2022-10-13T01:49:53.259Z,65.18
2022-10-13T01:52:24.017Z,65.18
2022-10-13T01:54:52.677Z,65.02
2022-10-13T01:57:32.637Z,65.25
2022-10-13T02:00:04.557Z,64.92
2022-10-13T02:02:49.017Z,64.63
2022-10-13T02:05:19.018Z,64.50
2022-10-13T02:07:57.897Z,64.38
2022-10-13T02:10:55.937Z,64.54
2022-10-13T02:13:26.946Z,64.79
2022-10-13T02:15:59.316Z,65.08
2022-10-13T02:18:31.598Z,65.15
2022-10-13T02:20:59.337Z,65.14
2022-10-13T02:23:27.556Z,65.45
2022-10-13T02:25:55.857Z,65.32
2022-10-13T02:28:22.967Z,65.47
2022-10-13T02:30:50.197Z,65.07
2022-10-13T02:33:17.661Z,65.54
2022-10-13T02:35:44.785Z,65.81
2022-10-13T02:38:12.126Z,65.53
2022-10-13T02:40:39.187Z,65.36
2022-10-13T02:43:06.305Z,65.63
2022-10-13T02:45:33.236Z,65.37
2022-10-13T02:48:00.328Z,65.70
2022-10-13T02:50:27.342Z,65.71
2022-10-13T02:52:56.739Z,65.44
2022-10-13T02:55:23.799Z,65.47
2022-10-13T02:57:56.696Z,65.48
2022-10-13T03:00:23.917Z,65.61
2022-10-13T03:02:50.978Z,65.31
2022-10-13T03:05:18.178Z,65.13
2022-10-13T03:07:45.226Z,64.87
2022-10-13T03:10:12.278Z,65.05
2022-10-13T03:12:39.259Z,65.01
2022-10-13T03:15:06.878Z,64.89
2022-10-13T03:17:33.838Z,64.69
2022-10-13T03:20:00.837Z,64.93
2022-10-13T03:22:27.857Z,64.77
2022-10-13T03:24:54.878Z,64.77
2022-10-13T03:27:21.857Z,64.84
2022-10-13T03:29:48.867Z,65.42
2022-10-13T03:32:17.045Z,65.41
2022-10-13T03:34:44.197Z,65.82
2022-10-13T03:37:11.157Z,65.73
2022-10-13T03:39:42.146Z,65.26
2022-10-13T03:42:10.786Z,65.41
2022-10-13T03:44:39.457Z,65.98
2022-10-13T03:47:07.339Z,66.02
2022-10-13T03:49:34.278Z,65.84
2022-10-13T03:52:01.281Z,66.47
2022-10-13T03:54:28.300Z,66.26
2022-10-13T03:56:55.264Z,67.10
2022-10-13T03:59:22.493Z,66.50
2022-10-13T04:01:49.596Z,66.96
2022-10-13T04:04:16.617Z,66.93
2022-10-13T04:06:46.038Z,68.02
2022-10-13T04:09:13.317Z,67.77
2022-10-13T04:11:40.298Z,67.80
2022-10-13T04:14:07.698Z,67.44
2022-10-13T04:16:35.268Z,67.72
2022-10-13T04:19:06.134Z,67.36
2022-10-13T04:21:34.172Z,67.20
2022-10-13T04:24:02.579Z,66.68
2022-10-13T04:26:32.734Z,66.53
2022-10-13T04:29:08.345Z,66.42
2022-10-13T04:31:36.022Z,66.09
2022-10-13T04:34:03.497Z,66.11
2022-10-13T04:36:30.629Z,66.15
2022-10-13T04:38:58.256Z,65.99
2022-10-13T04:41:26.382Z,66.16
2022-10-13T04:43:54.502Z,65.69
2022-10-13T04:46:27.509Z,65.60
2022-10-13T04:48:57.504Z,65.86
2022-10-13T04:51:31.980Z,65.59
2022-10-13T04:54:02.143Z,65.75
2022-10-13T04:56:29.860Z,65.72
2022-10-13T04:59:02.858Z,65.80
2022-10-13T05:01:30.186Z,66.04
2022-10-13T05:04:00.310Z,65.75
2022-10-13T05:06:30.337Z,65.90
2022-10-13T05:08:58.138Z,66.07
2022-10-13T05:11:26.998Z,66.02
2022-10-13T05:13:54.980Z,66.30
2022-10-13T05:16:23.942Z,66.55
2022-10-13T05:18:52.783Z,66.47
2022-10-13T05:21:25.257Z,66.43
2022-10-13T05:23:56.193Z,66.23
2022-10-13T05:26:29.437Z,66.67
2022-10-13T05:28:57.436Z,66.66
2022-10-13T05:31:26.842Z,66.36
2022-10-13T05:33:54.339Z,66.26
2022-10-13T05:36:34.378Z,65.58
2022-10-13T05:39:04.179Z,65.45
2022-10-13T05:41:32.085Z,65.49
2022-10-13T05:44:05.145Z,65.21
2022-10-13T05:46:32.425Z,65.38
2022-10-13T05:48:59.696Z,65.80
2022-10-13T05:51:43.917Z,66.16
2022-10-13T05:54:25.297Z,66.24
2022-10-13T05:57:16.928Z,66.47
2022-10-13T05:59:53.876Z,66.65
2022-10-13T06:02:24.566Z,66.40
2022-10-13T06:04:54.155Z,67.17
2022-10-13T06:07:21.346Z,66.94
2022-10-13T06:09:49.924Z,66.79
2022-10-13T06:12:17.161Z,66.61
2022-10-13T06:14:44.206Z,66.00
2022-10-13T06:17:11.732Z,65.89
2022-10-13T06:19:43.377Z,66.09
2022-10-13T06:22:10.316Z,66.46
2022-10-13T06:24:37.459Z,66.95
2022-10-13T06:27:08.241Z,66.86
2022-10-13T06:29:36.356Z,66.34
2022-10-13T06:32:03.516Z,66.67
2022-10-13T06:34:30.406Z,66.38
2022-10-13T06:36:58.376Z,65.94
2022-10-13T06:39:26.660Z,65.80
2022-10-13T06:41:55.502Z,65.57
2022-10-13T06:44:32.067Z,65.53
2022-10-13T06:47:03.378Z,65.05
2022-10-13T06:49:30.336Z,64.88
2022-10-13T06:51:57.348Z,64.97
2022-10-13T06:54:24.389Z,64.59
2022-10-13T06:56:52.096Z,64.81
2022-10-13T06:59:19.408Z,64.89
2022-10-13T07:01:47.606Z,64.14
2022-10-13T07:04:15.926Z,64.50
2022-10-13T07:06:42.946Z,64.69
2022-10-13T07:09:10.634Z,64.66
2022-10-13T07:11:37.511Z,64.53
2022-10-13T07:14:04.522Z,64.85
2022-10-13T07:16:32.043Z,64.35
2022-10-13T07:18:59.077Z,64.50
2022-10-13T07:21:26.485Z,64.07
2022-10-13T07:23:53.517Z,63.97
2022-10-13T07:26:20.809Z,63.39
2022-10-13T07:28:47.924Z,64.04
2022-10-13T07:31:19.003Z,64.03
2022-10-13T07:33:48.889Z,63.98
2022-10-13T07:36:17.699Z,63.42
2022-10-13T07:38:44.676Z,63.62
2022-10-13T07:41:13.001Z,63.70
2022-10-13T07:43:40.208Z,63.67
2022-10-13T07:46:08.421Z,63.54
2022-10-13T07:48:36.166Z,63.22
2022-10-13T07:51:08.447Z,62.38
2022-10-13T07:53:35.717Z,62.19
2022-10-13T07:56:04.337Z,62.16
2022-10-13T07:58:31.606Z,62.14
2022-10-13T08:01:00.607Z,61.68
2022-10-13T08:03:29.204Z,61.07
2022-10-13T08:05:58.427Z,61.46
2022-10-13T08:08:25.451Z,61.09
2022-10-13T08:13:39.517Z,60.42
2022-10-13T08:16:21.088Z,60.02
2022-10-13T08:18:48.890Z,60.32
2022-10-13T08:24:11.685Z,59.86
2022-10-13T08:26:39.105Z,59.93
2022-10-13T08:29:23.047Z,59.35
2022-10-13T08:31:53.015Z,58.33
2022-10-13T08:34:21.711Z,58.82
2022-10-13T08:36:49.045Z,57.77
2022-10-13T08:39:16.094Z,57.45
2022-10-13T08:41:44.345Z,57.27
2022-10-13T08:44:56.707Z,56.80
2022-10-13T08:47:12.508Z,56.41
2022-10-13T08:49:42.545Z,56.43
2022-10-13T08:52:49.478Z,56.21
2022-10-13T08:55:24.067Z,56.00
2022-10-13T08:57:51.363Z,55.84
2022-10-13T09:00:20.596Z,55.67
2022-10-13T09:02:49.984Z,55.92
2022-10-13T09:05:28.926Z,55.19
2022-10-13T09:08:09.446Z,54.45
2022-10-13T09:10:49.896Z,54.50
2022-10-13T09:13:22.566Z,53.76
2022-10-13T09:15:50.816Z,54.29
2022-10-13T09:18:17.579Z,53.28
2022-10-13T09:20:44.538Z,52.50
2022-10-13T09:23:14.498Z,52.30
2022-10-13T09:25:48.596Z,52.64
2022-10-13T09:28:27.317Z,52.05
2022-10-13T09:31:14.044Z,52.04
2022-10-13T09:33:41.693Z,50.34
2022-10-13T09:36:16.507Z,49.04
2022-10-13T09:39:05.642Z,49.54
2022-10-13T09:41:33.845Z,49.46
2022-10-13T09:44:13.360Z,47.72
2022-10-13T09:46:49.158Z,47.63
2022-10-13T09:49:37.980Z,47.00
2022-10-13T09:52:15.668Z,47.94
2022-10-13T09:54:47.169Z,47.15
2022-10-13T09:57:35.943Z,46.48
2022-10-13T10:00:17.757Z,45.58
2022-10-13T10:02:51.557Z,45.64
2022-10-13T10:05:26.446Z,45.39
2022-10-13T10:08:16.916Z,44.87
2022-10-13T10:10:44.815Z,44.08
2022-10-13T10:13:13.375Z,44.32
2022-10-13T10:16:04.696Z,43.68
2022-10-13T10:18:37.697Z,43.69
2022-10-13T10:21:26.627Z,43.00
2022-10-13T10:24:29.838Z,42.88
2022-10-13T10:27:26.065Z,42.72
2022-10-13T10:30:10.033Z,42.07
2022-10-13T10:33:24.786Z,42.78
2022-10-13T10:36:16.961Z,42.88
2022-10-13T10:38:52.996Z,41.63
2022-10-13T10:41:41.305Z,41.32
2022-10-13T10:44:33.831Z,41.45
2022-10-13T10:47:11.548Z,41.24
2022-10-13T10:49:41.590Z,40.60
2022-10-13T10:52:22.296Z,41.14
2022-10-13T10:55:24.466Z,40.75
2022-10-13T10:58:12.936Z,40.41
2022-10-13T11:13:18.665Z,40.87
2022-10-13T11:15:46.594Z,40.50
2022-10-13T11:19:08.175Z,41.79
2022-10-13T11:21:53.235Z,40.72
2022-10-13T11:24:41.670Z,41.07
2022-10-13T11:27:17.307Z,40.34
2022-10-13T11:29:47.408Z,40.45
2022-10-13T11:32:35.418Z,39.47
2022-10-13T11:35:06.107Z,40.31
2022-10-13T11:38:06.033Z,39.65
2022-10-13T11:40:36.577Z,39.90
2022-10-13T11:43:26.055Z,38.99
2022-10-13T11:46:08.857Z,39.32
2022-10-13T11:49:03.677Z,38.14
2022-10-13T11:51:32.778Z,38.16
2022-10-13T11:54:19.845Z,37.72
2022-10-13T11:56:53.467Z,38.12
2022-10-13T11:59:27.926Z,38.45
2022-10-13T12:01:59.466Z,38.13
2022-10-13T12:04:28.698Z,37.87
2022-10-13T12:07:01.977Z,37.12
2022-10-13T12:09:31.606Z,36.63
2022-10-13T12:12:07.626Z,36.18
2022-10-13T12:14:43.675Z,35.61
2022-10-13T12:17:33.116Z,35.65
2022-10-13T12:20:19.571Z,35.88
2022-10-13T12:22:50.440Z,34.95
2022-10-13T12:25:23.277Z,35.48
2022-10-13T12:27:56.039Z,35.42
2022-10-13T12:30:26.881Z,35.43
2022-10-13T12:32:56.766Z,35.55
2022-10-13T12:35:34.790Z,35.28
2022-10-13T12:38:03.526Z,34.46
2022-10-13T12:40:34.677Z,35.24
2022-10-13T12:43:04.033Z,35.14
2022-10-13T12:45:34.624Z,35.17
2022-10-13T12:48:01.600Z,34.79
2022-10-13T12:50:28.477Z,34.95
2022-10-13T12:53:03.717Z,33.97
2022-10-13T12:55:32.047Z,34.29
2022-10-13T12:57:59.644Z,33.98
2022-10-13T13:00:29.399Z,34.53
2022-10-13T13:03:02.356Z,34.77
2022-10-13T13:05:31.447Z,35.02
2022-10-13T13:08:03.646Z,34.18
2022-10-13T13:10:31.345Z,34.47
2022-10-13T13:13:14.525Z,34.13
2022-10-13T13:15:41.756Z,33.20
2022-10-13T13:18:27.076Z,32.74
2022-10-13T13:20:55.331Z,31.54
2022-10-13T13:23:23.648Z,30.91
2022-10-13T13:26:15.577Z,30.83
2022-10-13T13:28:46.351Z,29.29
2022-10-13T13:31:15.061Z,28.45
2022-10-13T13:33:42.114Z,27.25
2022-10-13T13:36:18.441Z,27.20
2022-10-13T13:38:47.537Z,25.93
2022-10-13T13:41:15.877Z,25.83
2022-10-13T13:43:43.059Z,25.42
2022-10-13T13:46:23.644Z,25.27
2022-10-13T13:48:51.213Z,26.25
2022-10-13T13:51:18.665Z,25.50
2022-10-13T13:53:46.108Z,25.54
2022-10-13T13:56:15.003Z,25.32
2022-10-13T13:58:42.334Z,25.18
2022-10-13T14:01:09.549Z,25.10
2022-10-13T14:03:36.576Z,25.29
2022-10-13T14:06:06.236Z,26.08
2022-10-13T14:08:34.254Z,27.12
2022-10-13T14:11:01.347Z,28.38
2022-10-13T14:13:28.279Z,29.37
2022-10-13T14:15:58.695Z,30.84
2022-10-13T14:18:26.170Z,32.83
2022-10-13T14:20:53.099Z,33.37
2022-10-13T14:23:20.098Z,34.37
2022-10-13T14:25:47.043Z,35.81
2022-10-13T14:28:18.061Z,36.51
2022-10-13T14:30:45.645Z,36.97
2022-10-13T14:33:12.609Z,38.22
2022-10-13T14:35:39.525Z,39.18
2022-10-13T14:38:11.513Z,39.83
2022-10-13T14:40:43.188Z,40.82
2022-10-13T14:43:10.196Z,40.58
2022-10-13T14:45:37.187Z,40.97
2022-10-13T14:48:04.376Z,41.37
2022-10-13T14:50:31.551Z,41.47
2022-10-13T14:52:58.592Z,42.09
2022-10-13T14:55:27.854Z,42.22
2022-10-13T14:57:54.848Z,42.76
2022-10-13T15:00:21.873Z,43.29
2022-10-13T15:02:48.957Z,44.77
2022-10-13T15:05:16.015Z,44.42
2022-10-13T15:07:42.982Z,44.48
2022-10-13T15:10:10.170Z,45.74
2022-10-13T15:12:37.222Z,45.51
2022-10-13T15:15:04.650Z,45.07
2022-10-13T15:17:33.445Z,45.21
2022-10-13T15:20:00.691Z,45.86
2022-10-13T15:22:27.748Z,45.73
2022-10-13T15:24:54.763Z,46.83
2022-10-13T15:27:21.750Z,46.53
2022-10-13T15:29:48.786Z,47.42
2022-10-13T15:32:18.607Z,47.62
2022-10-13T15:34:50.540Z,47.82
2022-10-13T15:37:17.566Z,47.36
2022-10-13T15:39:44.595Z,47.97
2022-10-13T15:42:12.108Z,47.90
2022-10-13T15:47:26.107Z,49.14
2022-10-13T15:49:53.116Z,49.06
2022-10-13T15:52:20.598Z,49.44
2022-10-13T15:54:51.612Z,49.97
2022-10-13T15:57:18.734Z,50.52
2022-10-13T15:59:45.639Z,50.82
2022-10-13T16:02:12.638Z,51.34
2022-10-13T16:04:39.676Z,51.56
2022-10-13T16:07:06.576Z,52.06
2022-10-13T16:09:33.634Z,51.84
2022-10-13T16:12:00.576Z,52.38
2022-10-13T16:14:27.733Z,52.38
2022-10-13T16:16:54.736Z,52.78
2022-10-13T16:19:21.855Z,52.94
2022-10-13T16:21:48.885Z,53.25
2022-10-13T16:24:15.972Z,53.40
2022-10-13T16:26:43.156Z,53.64
2022-10-13T16:29:10.165Z,53.54
2022-10-13T16:31:37.127Z,53.85
2022-10-13T16:34:04.236Z,53.92
2022-10-13T16:36:31.494Z,54.23
2022-10-13T16:38:59.176Z,54.27
2022-10-13T16:41:26.292Z,54.43
2022-10-13T16:43:53.657Z,54.69
2022-10-13T16:46:21.036Z,54.82
2022-10-13T16:48:48.371Z,54.56
2022-10-13T16:51:18.568Z,54.49
2022-10-13T16:53:54.036Z,54.64
2022-10-13T16:56:25.125Z,54.40
2022-10-13T16:59:01.033Z,55.21
2022-10-13T17:01:29.338Z,55.56
2022-10-13T17:03:56.686Z,55.61
2022-10-13T17:06:26.595Z,56.15
2022-10-13T17:09:00.728Z,55.80
2022-10-13T17:11:30.916Z,55.85
2022-10-13T17:13:59.508Z,56.26
2022-10-13T17:16:30.834Z,56.20
2022-10-13T17:18:57.906Z,56.12
2022-10-13T17:21:33.355Z,56.13
2022-10-13T17:24:00.477Z,56.29
2022-10-13T17:26:27.508Z,56.47
2022-10-13T17:28:55.389Z,56.48
2022-10-13T17:31:24.066Z,56.88
2022-10-13T17:33:51.965Z,57.03
2022-10-13T17:36:24.325Z,57.74
2022-10-13T17:38:52.645Z,57.71
2022-10-13T17:41:20.217Z,58.10
2022-10-13T17:43:51.658Z,57.78
2022-10-13T17:46:38.397Z,58.04
2022-10-13T17:49:11.822Z,58.00
2022-10-13T17:51:42.747Z,58.10
2022-10-13T17:54:15.721Z,58.48
2022-10-13T17:56:44.216Z,58.46
2022-10-13T17:59:11.418Z,58.71
2022-10-13T18:01:38.584Z,58.99
2022-10-13T18:04:08.754Z,58.69
2022-10-13T18:06:41.126Z,58.37
2022-10-13T18:09:14.795Z,58.60
2022-10-13T18:11:48.767Z,58.60
2022-10-13T18:14:17.815Z,58.35
2022-10-13T18:16:44.866Z,58.30
2022-10-13T18:19:13.275Z,58.25
2022-10-13T18:21:40.425Z,58.04
2022-10-13T18:24:09.215Z,57.90
2022-10-13T18:26:36.258Z,58.28
2022-10-13T18:29:06.237Z,57.75
2022-10-13T18:31:35.820Z,58.00
2022-10-13T18:34:06.066Z,58.05
2022-10-13T18:36:56.715Z,58.33
2022-10-13T18:39:26.696Z,57.90
2022-10-13T18:41:55.417Z,58.23
2022-10-13T18:44:23.862Z,58.50
2022-10-13T18:46:52.388Z,58.05
2022-10-13T18:49:23.415Z,58.15
2022-10-13T18:51:51.897Z,58.12
2022-10-13T18:54:19.009Z,58.66
2022-10-13T18:56:45.997Z,58.57
2022-10-13T18:59:12.994Z,58.76
2022-10-13T19:01:41.176Z,58.45
2022-10-13T19:04:08.828Z,58.56
2022-10-13T19:06:35.805Z,58.63
2022-10-13T19:09:06.296Z,59.09
2022-10-13T19:11:36.571Z,59.07
2022-10-13T19:14:05.745Z,58.89
2022-10-13T19:16:37.075Z,59.07
2022-10-13T19:19:04.592Z,59.15
2022-10-13T19:21:33.003Z,59.06
2022-10-13T19:24:00.390Z,58.86
2022-10-13T19:26:30.840Z,59.11
2022-10-13T19:29:00.401Z,59.10
2022-10-13T19:31:29.627Z,59.10
2022-10-13T19:33:57.149Z,58.58
2022-10-13T19:36:37.664Z,59.30
2022-10-13T19:39:07.822Z,59.33
2022-10-13T19:41:35.376Z,59.80
2022-10-13T19:44:03.145Z,60.32
2022-10-13T19:46:39.475Z,60.35
2022-10-13T19:49:06.785Z,60.20
2022-10-13T19:51:35.704Z,60.22
2022-10-13T19:54:03.158Z,60.24
2022-10-13T19:56:31.897Z,60.29
2022-10-13T19:58:59.117Z,60.57
2022-10-13T20:01:26.281Z,59.88
2022-10-13T20:03:53.434Z,60.52
2022-10-13T20:06:21.106Z,61.07
2022-10-13T20:08:48.871Z,60.69
2022-10-13T20:11:24.170Z,61.35
2022-10-13T20:13:52.577Z,61.17
2022-10-13T20:16:22.285Z,61.77
2022-10-13T20:18:58.036Z,61.44
2022-10-13T20:21:27.061Z,61.22
2022-10-13T20:23:54.371Z,61.29
2022-10-13T20:26:21.920Z,60.86
2022-10-13T20:28:50.499Z,60.98
2022-10-13T20:31:19.494Z,60.68
2022-10-13T20:33:47.246Z,60.61
2022-10-13T20:36:16.687Z,60.21
2022-10-13T20:38:43.733Z,60.32
2022-10-13T20:41:15.527Z,60.32
2022-10-13T20:43:42.988Z,60.13
2022-10-13T20:46:10.499Z,60.60
2022-10-13T20:51:26.991Z,60.29
2022-10-13T20:53:54.016Z,60.39
2022-10-13T20:56:23.666Z,60.51
2022-10-13T20:58:51.286Z,60.43
2022-10-13T21:01:19.989Z,60.51
2022-10-13T21:03:47.106Z,60.44
2022-10-13T21:06:14.836Z,60.80
2022-10-13T21:08:45.895Z,60.75
2022-10-13T21:11:14.682Z,60.92
2022-10-13T21:13:44.709Z,61.41
2022-10-13T21:16:17.236Z,61.59
2022-10-13T21:18:48.259Z,61.33
2022-10-13T21:21:17.118Z,61.69
2022-10-13T21:23:44.096Z,61.74
2022-10-13T21:26:14.371Z,61.64
2022-10-13T21:28:44.612Z,62.40
2022-10-13T21:31:14.057Z,62.47
2022-10-13T21:33:42.185Z,62.63
2022-10-13T21:36:10.048Z,63.43
2022-10-13T21:38:37.386Z,63.47
2022-10-13T21:41:05.885Z,63.17
2022-10-13T21:43:33.787Z,62.97
2022-10-13T21:46:15.272Z,63.35
2022-10-13T21:48:46.746Z,62.96
2022-10-13T21:51:20.014Z,63.25
2022-10-13T21:53:51.985Z,63.39
2022-10-13T21:56:19.646Z,63.09
2022-10-13T21:58:47.605Z,63.07
2022-10-13T22:01:15.756Z,62.65
2022-10-13T22:03:43.128Z,63.09
2022-10-13T22:06:19.083Z,62.83
2022-10-13T22:08:48.968Z,63.01
2022-10-13T22:11:22.577Z,62.64
2022-10-13T22:13:49.568Z,63.00
2022-10-13T22:16:22.586Z,63.06
2022-10-13T22:18:53.137Z,62.82
2022-10-13T22:21:23.113Z,63.39
2022-10-13T22:23:50.084Z,63.25
2022-10-13T22:26:18.429Z,63.34
2022-10-13T22:28:48.386Z,63.49
2022-10-13T22:31:15.490Z,63.77
2022-10-13T22:33:43.506Z,62.99
2022-10-13T22:36:14.699Z,63.05
2022-10-13T22:38:42.746Z,63.10
2022-10-13T22:41:10.487Z,62.93
2022-10-13T22:43:37.786Z,62.93
2022-10-13T22:46:13.066Z,63.01
2022-10-13T22:48:41.117Z,63.06
2022-10-13T22:51:16.757Z,62.93
2022-10-13T22:53:44.925Z,62.83
2022-10-13T22:56:15.757Z,63.03
2022-10-13T22:58:42.819Z,62.87
2022-10-13T23:01:15.046Z,62.96
2022-10-13T23:03:42.227Z,62.83
2022-10-13T23:06:13.953Z,63.12
2022-10-13T23:08:41.295Z,62.82
2022-10-13T23:11:08.352Z,62.69
2022-10-13T23:13:35.707Z,62.72
2022-10-13T23:16:03.493Z,62.70
2022-10-13T23:18:34.435Z,62.84
2022-10-13T23:21:08.865Z,62.93
2022-10-13T23:23:35.928Z,62.79
2022-10-13T23:26:04.815Z,62.65
2022-10-13T23:28:32.954Z,62.71
2022-10-13T23:31:06.993Z,62.55
2022-10-13T23:33:33.999Z,62.36
2022-10-13T23:36:01.924Z,62.02
2022-10-13T23:38:30.494Z,61.98
2022-10-13T23:41:09.655Z,62.36
2022-10-13T23:43:38.373Z,62.27
2022-10-13T23:46:05.456Z,62.00
2022-10-13T23:48:32.553Z,62.74
2022-10-13T23:51:05.134Z,62.46
2022-10-13T23:53:35.663Z,62.23
2022-10-13T23:56:04.603Z,62.04
2022-10-13T23:58:32.194Z,62.36
